sensor_id;sensor_type;location;lat;lon;timestamp;temperature;humidity
15930;DHT22;8064;51.142;4.780;2023-02-01T00:02:06;6.70;99.90
15930;DHT22;8064;51.142;4.780;2023-02-01T00:04:32;6.80;99.90
15930;DHT22;8064;51.142;4.780;2023-02-01T00:06:58;6.80;99.90
15930;DHT22;8064;51.142;4.780;2023-02-01T00:09:24;6.70;99.90
15930;DHT22;8064;51.142;4.780;2023-02-01T00:11:49;6.70;99.90
15930;DHT22;8064;51.142;4.780;2023-02-01T00:14:15;6.80;99.90
15930;DHT22;8064;51.142;4.780;2023-02-01T00:16:41;6.80;99.90
15930;DHT22;8064;51.142;4.780;2023-02-01T00:19:11;6.80;99.90
15930;DHT22;8064;51.142;4.780;2023-02-01T00:21:37;6.80;99.90
15930;DHT22;8064;51.142;4.780;2023-02-01T00:24:03;6.80;99.90
15930;DHT22;8064;51.142;4.780;2023-02-01T00:26:43;6.80;99.90
15930;DHT22;8064;51.142;4.780;2023-02-01T00:29:12;6.90;99.90
15930;DHT22;8064;51.142;4.780;2023-02-01T00:31:39;6.90;99.90
15930;DHT22;8064;51.142;4.780;2023-02-01T00:34:06;6.90;99.90
15930;DHT22;8064;51.142;4.780;2023-02-01T00:36:33;6.90;99.90
15930;DHT22;8064;51.142;4.780;2023-02-01T00:38:59;6.90;99.90
15930;DHT22;8064;51.142;4.780;2023-02-01T00:41:25;6.90;99.90
15930;DHT22;8064;51.142;4.780;2023-02-01T00:43:52;7.00;99.90
15930;DHT22;8064;51.142;4.780;2023-02-01T00:46:19;6.90;99.90
15930;DHT22;8064;51.142;4.780;2023-02-01T00:48:45;6.90;99.90
15930;DHT22;8064;51.142;4.780;2023-02-01T00:51:14;6.90;99.90
15930;DHT22;8064;51.142;4.780;2023-02-01T00:53:40;6.90;99.90
15930;DHT22;8064;51.142;4.780;2023-02-01T00:56:06;6.90;99.90
15930;DHT22;8064;51.142;4.780;2023-02-01T00:58:32;6.90;99.90
15930;DHT22;8064;51.142;4.780;2023-02-01T01:01:18;6.80;99.90
15930;DHT22;8064;51.142;4.780;2023-02-01T01:03:48;6.80;99.90
15930;DHT22;8064;51.142;4.780;2023-02-01T01:06:18;6.80;99.90
15930;DHT22;8064;51.142;4.780;2023-02-01T01:08:44;6.80;99.90
15930;DHT22;8064;51.142;4.780;2023-02-01T01:11:13;6.70;99.90
15930;DHT22;8064;51.142;4.780;2023-02-01T01:13:39;6.70;99.90
15930;DHT22;8064;51.142;4.780;2023-02-01T01:16:07;6.70;99.90
15930;DHT22;8064;51.142;4.780;2023-02-01T01:18:33;6.70;99.90
15930;DHT22;8064;51.142;4.780;2023-02-01T01:20:59;6.70;99.90
15930;DHT22;8064;51.142;4.780;2023-02-01T01:23:26;6.70;99.90
15930;DHT22;8064;51.142;4.780;2023-02-01T01:25:52;6.70;99.90
15930;DHT22;8064;51.142;4.780;2023-02-01T01:28:18;6.70;99.90
15930;DHT22;8064;51.142;4.780;2023-02-01T01:30:44;6.70;99.90
15930;DHT22;8064;51.142;4.780;2023-02-01T01:33:10;6.70;99.90
15930;DHT22;8064;51.142;4.780;2023-02-01T01:35:36;6.70;99.90
15930;DHT22;8064;51.142;4.780;2023-02-01T01:38:02;6.70;99.90
15930;DHT22;8064;51.142;4.780;2023-02-01T01:40:29;6.70;99.90
15930;DHT22;8064;51.142;4.780;2023-02-01T01:42:56;6.70;99.90
15930;DHT22;8064;51.142;4.780;2023-02-01T01:45:41;6.70;99.90
15930;DHT22;8064;51.142;4.780;2023-02-01T01:48:13;6.70;99.90
15930;DHT22;8064;51.142;4.780;2023-02-01T01:50:48;6.70;99.90
15930;DHT22;8064;51.142;4.780;2023-02-01T01:53:20;6.70;99.90
15930;DHT22;8064;51.142;4.780;2023-02-01T01:55:48;6.70;99.90
15930;DHT22;8064;51.142;4.780;2023-02-01T01:58:18;6.70;99.90
15930;DHT22;8064;51.142;4.780;2023-02-01T02:00:45;6.70;99.90
15930;DHT22;8064;51.142;4.780;2023-02-01T02:03:20;6.70;99.90
15930;DHT22;8064;51.142;4.780;2023-02-01T02:05:50;6.60;99.90
15930;DHT22;8064;51.142;4.780;2023-02-01T02:08:17;6.60;99.90
15930;DHT22;8064;51.142;4.780;2023-02-01T02:10:47;6.60;99.90
15930;DHT22;8064;51.142;4.780;2023-02-01T02:13:39;6.60;99.90
15930;DHT22;8064;51.142;4.780;2023-02-01T02:36:57;6.40;99.90
15930;DHT22;8064;51.142;4.780;2023-02-01T02:45:18;6.30;99.90
15930;DHT22;8064;51.142;4.780;2023-02-01T02:48:28;6.30;99.90
15930;DHT22;8064;51.142;4.780;2023-02-01T02:57:03;6.20;99.90
15930;DHT22;8064;51.142;4.780;2023-02-01T02:59:49;6.20;99.90
15930;DHT22;8064;51.142;4.780;2023-02-01T03:02:34;6.20;99.90
15930;DHT22;8064;51.142;4.780;2023-02-01T03:05:19;6.20;99.90
15930;DHT22;8064;51.142;4.780;2023-02-01T03:08:08;6.10;99.90
15930;DHT22;8064;51.142;4.780;2023-02-01T03:10:55;6.10;99.90
15930;DHT22;8064;51.142;4.780;2023-02-01T03:19:05;6.10;99.90
15930;DHT22;8064;51.142;4.780;2023-02-01T03:21:55;6.10;99.90
15930;DHT22;8064;51.142;4.780;2023-02-01T03:27:05;6.10;99.90
15930;DHT22;8064;51.142;4.780;2023-02-01T03:29:38;6.10;99.90
15930;DHT22;8064;51.142;4.780;2023-02-01T03:32:05;6.10;99.90
15930;DHT22;8064;51.142;4.780;2023-02-01T03:34:31;6.10;99.90
15930;DHT22;8064;51.142;4.780;2023-02-01T03:37:01;6.10;99.90
15930;DHT22;8064;51.142;4.780;2023-02-01T03:39:34;6.10;99.90
15930;DHT22;8064;51.142;4.780;2023-02-01T03:42:04;6.10;99.90
15930;DHT22;8064;51.142;4.780;2023-02-01T03:44:36;6.10;99.90
15930;DHT22;8064;51.142;4.780;2023-02-01T03:47:09;6.10;99.90
15930;DHT22;8064;51.142;4.780;2023-02-01T03:49:40;6.10;99.90
15930;DHT22;8064;51.142;4.780;2023-02-01T03:52:10;6.10;99.90
15930;DHT22;8064;51.142;4.780;2023-02-01T03:54:38;6.00;99.90
15930;DHT22;8064;51.142;4.780;2023-02-01T03:57:09;6.00;99.90
15930;DHT22;8064;51.142;4.780;2023-02-01T03:59:40;6.00;99.90
15930;DHT22;8064;51.142;4.780;2023-02-01T04:02:07;6.00;99.90
15930;DHT22;8064;51.142;4.780;2023-02-01T04:04:34;5.90;99.90
15930;DHT22;8064;51.142;4.780;2023-02-01T04:07:00;5.90;99.90
15930;DHT22;8064;51.142;4.780;2023-02-01T04:09:26;5.90;99.90
15930;DHT22;8064;51.142;4.780;2023-02-01T04:11:52;5.90;99.90
15930;DHT22;8064;51.142;4.780;2023-02-01T04:14:18;5.90;99.90
15930;DHT22;8064;51.142;4.780;2023-02-01T04:16:43;5.90;99.90
15930;DHT22;8064;51.142;4.780;2023-02-01T04:19:09;5.90;99.90
15930;DHT22;8064;51.142;4.780;2023-02-01T04:21:35;5.90;99.90
15930;DHT22;8064;51.142;4.780;2023-02-01T04:24:01;5.80;99.90
15930;DHT22;8064;51.142;4.780;2023-02-01T04:26:26;5.80;99.90
15930;DHT22;8064;51.142;4.780;2023-02-01T04:28:52;5.80;99.90
15930;DHT22;8064;51.142;4.780;2023-02-01T04:31:19;5.80;99.90
15930;DHT22;8064;51.142;4.780;2023-02-01T04:33:52;5.80;99.90
15930;DHT22;8064;51.142;4.780;2023-02-01T04:36:19;5.80;99.90
15930;DHT22;8064;51.142;4.780;2023-02-01T04:38:54;5.80;99.90
15930;DHT22;8064;51.142;4.780;2023-02-01T04:41:20;5.80;99.90
15930;DHT22;8064;51.142;4.780;2023-02-01T04:43:49;5.80;99.90
15930;DHT22;8064;51.142;4.780;2023-02-01T04:46:15;5.80;99.90
15930;DHT22;8064;51.142;4.780;2023-02-01T04:48:41;5.80;99.90
15930;DHT22;8064;51.142;4.780;2023-02-01T04:51:08;5.80;99.90
15930;DHT22;8064;51.142;4.780;2023-02-01T04:53:34;5.80;99.90
15930;DHT22;8064;51.142;4.780;2023-02-01T04:55:59;5.80;99.90
15930;DHT22;8064;51.142;4.780;2023-02-01T04:58:25;5.80;99.90
15930;DHT22;8064;51.142;4.780;2023-02-01T05:00:51;5.80;99.90
15930;DHT22;8064;51.142;4.780;2023-02-01T05:03:17;5.80;99.90
15930;DHT22;8064;51.142;4.780;2023-02-01T05:05:43;5.80;99.90
15930;DHT22;8064;51.142;4.780;2023-02-01T05:08:09;5.80;99.90
15930;DHT22;8064;51.142;4.780;2023-02-01T05:10:35;5.80;99.90
15930;DHT22;8064;51.142;4.780;2023-02-01T05:13:01;5.70;99.90
15930;DHT22;8064;51.142;4.780;2023-02-01T05:15:45;5.70;99.90
15930;DHT22;8064;51.142;4.780;2023-02-01T05:18:12;5.70;99.90
15930;DHT22;8064;51.142;4.780;2023-02-01T05:20:38;5.70;99.90
15930;DHT22;8064;51.142;4.780;2023-02-01T05:23:03;5.80;99.90
15930;DHT22;8064;51.142;4.780;2023-02-01T05:25:29;5.80;99.90
15930;DHT22;8064;51.142;4.780;2023-02-01T05:27:55;5.80;99.90
15930;DHT22;8064;51.142;4.780;2023-02-01T05:30:21;5.80;99.90
15930;DHT22;8064;51.142;4.780;2023-02-01T05:32:50;5.80;99.90
15930;DHT22;8064;51.142;4.780;2023-02-01T05:35:16;5.80;99.90
15930;DHT22;8064;51.142;4.780;2023-02-01T05:37:41;5.70;99.90
15930;DHT22;8064;51.142;4.780;2023-02-01T05:40:08;5.70;99.90
15930;DHT22;8064;51.142;4.780;2023-02-01T05:42:34;5.70;99.90
15930;DHT22;8064;51.142;4.780;2023-02-01T05:44:59;5.70;99.90
15930;DHT22;8064;51.142;4.780;2023-02-01T05:47:25;5.70;99.90
15930;DHT22;8064;51.142;4.780;2023-02-01T05:49:51;5.70;99.90
15930;DHT22;8064;51.142;4.780;2023-02-01T05:52:17;5.70;99.90
15930;DHT22;8064;51.142;4.780;2023-02-01T05:54:45;5.70;99.90
15930;DHT22;8064;51.142;4.780;2023-02-01T05:57:12;5.70;99.90
15930;DHT22;8064;51.142;4.780;2023-02-01T05:59:39;5.70;99.90
15930;DHT22;8064;51.142;4.780;2023-02-01T06:02:07;5.70;99.90
15930;DHT22;8064;51.142;4.780;2023-02-01T06:04:34;5.70;99.90
15930;DHT22;8064;51.142;4.780;2023-02-01T06:06:59;5.70;99.90
15930;DHT22;8064;51.142;4.780;2023-02-01T06:09:25;5.80;99.90
15930;DHT22;8064;51.142;4.780;2023-02-01T06:11:51;5.80;99.90
15930;DHT22;8064;51.142;4.780;2023-02-01T06:14:17;5.80;99.90
15930;DHT22;8064;51.142;4.780;2023-02-01T06:16:42;5.90;99.90
15930;DHT22;8064;51.142;4.780;2023-02-01T06:19:10;5.90;99.90
15930;DHT22;8064;51.142;4.780;2023-02-01T06:21:36;5.90;99.90
15930;DHT22;8064;51.142;4.780;2023-02-01T06:24:02;5.90;99.90
15930;DHT22;8064;51.142;4.780;2023-02-01T06:26:28;5.90;99.90
15930;DHT22;8064;51.142;4.780;2023-02-01T06:28:54;5.90;99.90
15930;DHT22;8064;51.142;4.780;2023-02-01T06:31:20;5.80;99.90
15930;DHT22;8064;51.142;4.780;2023-02-01T06:33:46;5.80;99.90
15930;DHT22;8064;51.142;4.780;2023-02-01T06:36:13;5.80;99.90
15930;DHT22;8064;51.142;4.780;2023-02-01T06:38:38;5.80;99.90
15930;DHT22;8064;51.142;4.780;2023-02-01T06:41:05;5.80;99.90
15930;DHT22;8064;51.142;4.780;2023-02-01T06:43:31;5.80;99.90
15930;DHT22;8064;51.142;4.780;2023-02-01T06:46:01;5.80;99.90
15930;DHT22;8064;51.142;4.780;2023-02-01T06:48:27;5.80;99.90
15930;DHT22;8064;51.142;4.780;2023-02-01T06:50:52;5.80;99.90
15930;DHT22;8064;51.142;4.780;2023-02-01T06:53:18;5.80;99.90
15930;DHT22;8064;51.142;4.780;2023-02-01T06:55:57;5.80;99.90
15930;DHT22;8064;51.142;4.780;2023-02-01T06:58:23;5.80;99.90
15930;DHT22;8064;51.142;4.780;2023-02-01T07:00:50;5.80;99.90
15930;DHT22;8064;51.142;4.780;2023-02-01T07:03:16;5.80;99.90
15930;DHT22;8064;51.142;4.780;2023-02-01T07:05:42;5.80;99.90
15930;DHT22;8064;51.142;4.780;2023-02-01T07:08:07;5.80;99.90
15930;DHT22;8064;51.142;4.780;2023-02-01T07:10:34;5.70;99.90
15930;DHT22;8064;51.142;4.780;2023-02-01T07:13:00;5.70;99.90
15930;DHT22;8064;51.142;4.780;2023-02-01T07:15:26;5.70;99.90
15930;DHT22;8064;51.142;4.780;2023-02-01T07:17:54;5.80;99.90
15930;DHT22;8064;51.142;4.780;2023-02-01T07:20:20;5.80;99.90
15930;DHT22;8064;51.142;4.780;2023-02-01T07:22:46;5.80;99.90
15930;DHT22;8064;51.142;4.780;2023-02-01T07:25:12;5.80;99.90
15930;DHT22;8064;51.142;4.780;2023-02-01T07:27:38;5.80;99.90
15930;DHT22;8064;51.142;4.780;2023-02-01T07:30:04;5.80;99.90
15930;DHT22;8064;51.142;4.780;2023-02-01T07:32:30;5.80;99.90
15930;DHT22;8064;51.142;4.780;2023-02-01T07:34:57;5.80;99.90
15930;DHT22;8064;51.142;4.780;2023-02-01T07:37:23;5.80;99.90
15930;DHT22;8064;51.142;4.780;2023-02-01T07:39:50;5.90;99.90
15930;DHT22;8064;51.142;4.780;2023-02-01T07:42:17;5.90;99.90
15930;DHT22;8064;51.142;4.780;2023-02-01T07:44:42;5.90;99.90
15930;DHT22;8064;51.142;4.780;2023-02-01T07:47:08;5.90;99.90
15930;DHT22;8064;51.142;4.780;2023-02-01T07:49:34;5.90;99.90
15930;DHT22;8064;51.142;4.780;2023-02-01T07:52:00;5.90;99.90
15930;DHT22;8064;51.142;4.780;2023-02-01T07:54:26;5.90;99.90
15930;DHT22;8064;51.142;4.780;2023-02-01T07:56:52;6.00;99.90
15930;DHT22;8064;51.142;4.780;2023-02-01T07:59:17;6.00;99.90
15930;DHT22;8064;51.142;4.780;2023-02-01T08:01:43;6.00;99.90
15930;DHT22;8064;51.142;4.780;2023-02-01T08:04:11;6.10;99.90
15930;DHT22;8064;51.142;4.780;2023-02-01T08:06:37;6.10;99.90
15930;DHT22;8064;51.142;4.780;2023-02-01T08:09:05;6.20;99.90
15930;DHT22;8064;51.142;4.780;2023-02-01T08:11:31;6.30;99.90
15930;DHT22;8064;51.142;4.780;2023-02-01T08:13:58;6.30;99.90
15930;DHT22;8064;51.142;4.780;2023-02-01T08:16:24;6.40;99.90
15930;DHT22;8064;51.142;4.780;2023-02-01T08:18:50;6.50;99.90
15930;DHT22;8064;51.142;4.780;2023-02-01T08:21:19;6.50;99.90
15930;DHT22;8064;51.142;4.780;2023-02-01T08:23:46;6.60;99.90
15930;DHT22;8064;51.142;4.780;2023-02-01T08:26:14;6.60;99.90
15930;DHT22;8064;51.142;4.780;2023-02-01T08:28:43;6.60;99.90
15930;DHT22;8064;51.142;4.780;2023-02-01T08:31:12;6.70;99.90
15930;DHT22;8064;51.142;4.780;2023-02-01T08:33:40;6.70;99.90
15930;DHT22;8064;51.142;4.780;2023-02-01T08:36:08;6.70;99.90
15930;DHT22;8064;51.142;4.780;2023-02-01T08:38:36;6.70;99.90
15930;DHT22;8064;51.142;4.780;2023-02-01T08:41:19;6.80;99.90
15930;DHT22;8064;51.142;4.780;2023-02-01T08:43:45;6.80;99.90
15930;DHT22;8064;51.142;4.780;2023-02-01T08:46:11;6.90;99.90
15930;DHT22;8064;51.142;4.780;2023-02-01T08:48:37;6.90;99.90
15930;DHT22;8064;51.142;4.780;2023-02-01T08:51:05;7.00;99.90
15930;DHT22;8064;51.142;4.780;2023-02-01T08:53:31;7.00;99.90
15930;DHT22;8064;51.142;4.780;2023-02-01T08:55:57;7.10;99.90
15930;DHT22;8064;51.142;4.780;2023-02-01T08:58:23;7.10;99.90
15930;DHT22;8064;51.142;4.780;2023-02-01T09:00:49;7.20;99.90
15930;DHT22;8064;51.142;4.780;2023-02-01T09:03:16;7.30;99.90
15930;DHT22;8064;51.142;4.780;2023-02-01T09:05:42;7.30;99.90
15930;DHT22;8064;51.142;4.780;2023-02-01T09:08:08;7.40;99.90
15930;DHT22;8064;51.142;4.780;2023-02-01T09:10:34;7.40;99.90
15930;DHT22;8064;51.142;4.780;2023-02-01T09:13:01;7.50;99.90
15930;DHT22;8064;51.142;4.780;2023-02-01T09:15:28;7.50;99.90
15930;DHT22;8064;51.142;4.780;2023-02-01T09:17:54;7.60;99.90
15930;DHT22;8064;51.142;4.780;2023-02-01T09:20:19;7.70;99.90
15930;DHT22;8064;51.142;4.780;2023-02-01T09:22:50;7.80;99.90
15930;DHT22;8064;51.142;4.780;2023-02-01T09:25:16;7.90;99.90
15930;DHT22;8064;51.142;4.780;2023-02-01T09:27:42;8.10;99.90
15930;DHT22;8064;51.142;4.780;2023-02-01T09:30:08;8.30;99.90
15930;DHT22;8064;51.142;4.780;2023-02-01T09:32:35;8.50;99.90
15930;DHT22;8064;51.142;4.780;2023-02-01T09:35:01;8.90;99.90
15930;DHT22;8064;51.142;4.780;2023-02-01T09:37:27;9.70;99.90
15930;DHT22;8064;51.142;4.780;2023-02-01T09:39:53;11.10;99.90
15930;DHT22;8064;51.142;4.780;2023-02-01T09:48:11;13.80;97.90
15930;DHT22;8064;51.142;4.780;2023-02-01T09:50:40;14.80;95.90
15930;DHT22;8064;51.142;4.780;2023-02-01T09:53:27;15.50;94.30
15930;DHT22;8064;51.142;4.780;2023-02-01T09:55:59;16.30;92.80
15930;DHT22;8064;51.142;4.780;2023-02-01T10:01:20;17.80;89.60
15930;DHT22;8064;51.142;4.780;2023-02-01T10:03:48;18.40;88.40
15930;DHT22;8064;51.142;4.780;2023-02-01T10:09:14;20.90;80.60
15930;DHT22;8064;51.142;4.780;2023-02-01T10:14:37;24.00;71.20
15930;DHT22;8064;51.142;4.780;2023-02-01T10:25:37;27.70;56.60
15930;DHT22;8064;51.142;4.780;2023-02-01T10:28:14;28.40;53.70
15930;DHT22;8064;51.142;4.780;2023-02-01T10:30:44;28.10;54.50
15930;DHT22;8064;51.142;4.780;2023-02-01T10:33:27;27.60;55.10
15930;DHT22;8064;51.142;4.780;2023-02-01T10:36:16;27.40;53.70
15930;DHT22;8064;51.142;4.780;2023-02-01T10:38:45;27.70;52.10
15930;DHT22;8064;51.142;4.780;2023-02-01T10:41:15;28.20;52.50
15930;DHT22;8064;51.142;4.780;2023-02-01T10:43:41;28.80;51.20
15930;DHT22;8064;51.142;4.780;2023-02-01T10:46:08;28.50;51.60
15930;DHT22;8064;51.142;4.780;2023-02-01T10:48:34;27.20;51.80
15930;DHT22;8064;51.142;4.780;2023-02-01T10:51:10;25.30;54.50
15930;DHT22;8064;51.142;4.780;2023-02-01T10:53:48;24.80;55.30
15930;DHT22;8064;51.142;4.780;2023-02-01T10:56:22;25.30;54.50
15930;DHT22;8064;51.142;4.780;2023-02-01T10:58:49;26.60;53.00
15930;DHT22;8064;51.142;4.780;2023-02-01T11:01:19;28.20;51.40
15930;DHT22;8064;51.142;4.780;2023-02-01T11:03:57;28.50;49.60
15930;DHT22;8064;51.142;4.780;2023-02-01T11:06:28;28.70;48.90
15930;DHT22;8064;51.142;4.780;2023-02-01T11:08:57;30.00;47.30
15930;DHT22;8064;51.142;4.780;2023-02-01T11:11:24;30.40;46.00
15930;DHT22;8064;51.142;4.780;2023-02-01T11:13:54;29.60;47.10
15930;DHT22;8064;51.142;4.780;2023-02-01T11:16:21;27.10;49.60
15930;DHT22;8064;51.142;4.780;2023-02-01T11:18:53;24.70;52.40
15930;DHT22;8064;51.142;4.780;2023-02-01T11:21:20;23.20;54.00
15930;DHT22;8064;51.142;4.780;2023-02-01T11:23:47;21.60;56.00
15930;DHT22;8064;51.142;4.780;2023-02-01T11:26:23;20.50;56.90
15930;DHT22;8064;51.142;4.780;2023-02-01T11:28:56;19.20;58.50
15930;DHT22;8064;51.142;4.780;2023-02-01T11:31:24;17.90;60.70
15930;DHT22;8064;51.142;4.780;2023-02-01T11:33:53;16.90;62.60
15930;DHT22;8064;51.142;4.780;2023-02-01T11:36:26;16.00;64.20
15930;DHT22;8064;51.142;4.780;2023-02-01T11:44:50;14.20;68.60
15930;DHT22;8064;51.142;4.780;2023-02-01T11:47:40;13.70;70.10
15930;DHT22;8064;51.142;4.780;2023-02-01T11:50:22;13.30;71.40
15930;DHT22;8064;51.142;4.780;2023-02-01T11:56:17;12.80;73.40
15930;DHT22;8064;51.142;4.780;2023-02-01T11:59:04;12.50;74.30
15930;DHT22;8064;51.142;4.780;2023-02-01T12:10:06;11.70;77.60
15930;DHT22;8064;51.142;4.780;2023-02-01T12:12:40;11.60;78.90
15930;DHT22;8064;51.142;4.780;2023-02-01T12:15:46;11.60;78.90
15930;DHT22;8064;51.142;4.780;2023-02-01T12:33:07;11.30;82.10
15930;DHT22;8064;51.142;4.780;2023-02-01T12:35:59;11.30;82.50
15930;DHT22;8064;51.142;4.780;2023-02-01T12:41:19;11.20;83.10
15930;DHT22;8064;51.142;4.780;2023-02-01T12:50:00;11.00;84.40
15930;DHT22;8064;51.142;4.780;2023-02-01T12:52:40;11.00;84.90
15930;DHT22;8064;51.142;4.780;2023-02-01T12:55:35;11.00;85.10
15930;DHT22;8064;51.142;4.780;2023-02-01T12:58:12;11.00;85.40
15930;DHT22;8064;51.142;4.780;2023-02-01T13:00:41;10.90;85.50
15930;DHT22;8064;51.142;4.780;2023-02-01T13:06:37;10.90;86.00
15930;DHT22;8064;51.142;4.780;2023-02-01T13:09:25;10.90;86.40
15930;DHT22;8064;51.142;4.780;2023-02-01T13:11:54;10.80;86.60
15930;DHT22;8064;51.142;4.780;2023-02-01T13:14:33;10.80;86.80
15930;DHT22;8064;51.142;4.780;2023-02-01T13:17:08;10.80;87.20
15930;DHT22;8064;51.142;4.780;2023-02-01T13:24:57;10.80;87.80
15930;DHT22;8064;51.142;4.780;2023-02-01T13:27:27;10.80;88.00
15930;DHT22;8064;51.142;4.780;2023-02-01T13:29:59;10.80;88.30
15930;DHT22;8064;51.142;4.780;2023-02-01T13:35:43;10.80;89.00
15930;DHT22;8064;51.142;4.780;2023-02-01T13:41:15;10.80;89.60
15930;DHT22;8064;51.142;4.780;2023-02-01T13:43:50;10.70;89.70
15930;DHT22;8064;51.142;4.780;2023-02-01T13:46:18;10.70;90.00
15930;DHT22;8064;51.142;4.780;2023-02-01T13:48:59;10.70;90.10
15930;DHT22;8064;51.142;4.780;2023-02-01T13:51:45;10.70;90.20
15930;DHT22;8064;51.142;4.780;2023-02-01T13:54:33;10.60;90.30
15930;DHT22;8064;51.142;4.780;2023-02-01T13:57:01;10.60;90.50
15930;DHT22;8064;51.142;4.780;2023-02-01T13:59:49;10.60;90.60
15930;DHT22;8064;51.142;4.780;2023-02-01T14:10:49;10.50;91.00
15930;DHT22;8064;51.142;4.780;2023-02-01T14:13:33;10.40;91.10
15930;DHT22;8064;51.142;4.780;2023-02-01T14:16:16;10.40;91.20
15930;DHT22;8064;51.142;4.780;2023-02-01T14:21:27;10.40;91.50
15930;DHT22;8064;51.142;4.780;2023-02-01T14:26:23;10.30;91.70
15930;DHT22;8064;51.142;4.780;2023-02-01T14:31:40;10.30;92.00
15930;DHT22;8064;51.142;4.780;2023-02-01T14:37:12;10.30;92.20
15930;DHT22;8064;51.142;4.780;2023-02-01T14:42:48;10.30;92.40
15930;DHT22;8064;51.142;4.780;2023-02-01T14:50:45;10.20;92.70
15930;DHT22;8064;51.142;4.780;2023-02-01T14:55:52;10.20;92.90
15930;DHT22;8064;51.142;4.780;2023-02-01T15:06:49;10.20;93.20
15930;DHT22;8064;51.142;4.780;2023-02-01T15:09:35;10.20;93.30
15930;DHT22;8064;51.142;4.780;2023-02-01T15:12:14;10.20;93.40
15930;DHT22;8064;51.142;4.780;2023-02-01T15:14:44;10.20;93.40
15930;DHT22;8064;51.142;4.780;2023-02-01T15:20:00;10.20;93.60
15930;DHT22;8064;51.142;4.780;2023-02-01T15:22:28;10.20;93.70
15930;DHT22;8064;51.142;4.780;2023-02-01T15:24:56;10.20;93.70
15930;DHT22;8064;51.142;4.780;2023-02-01T15:27:22;10.20;93.70
15930;DHT22;8064;51.142;4.780;2023-02-01T15:29:48;10.20;93.80
15930;DHT22;8064;51.142;4.780;2023-02-01T15:32:34;10.20;93.80
15930;DHT22;8064;51.142;4.780;2023-02-01T15:35:01;10.20;93.90
15930;DHT22;8064;51.142;4.780;2023-02-01T15:37:28;10.10;93.80
15930;DHT22;8064;51.142;4.780;2023-02-01T15:42:59;10.10;94.00
15930;DHT22;8064;51.142;4.780;2023-02-01T15:45:27;10.10;94.00
15930;DHT22;8064;51.142;4.780;2023-02-01T15:47:55;10.10;94.10
15930;DHT22;8064;51.142;4.780;2023-02-01T15:50:22;10.10;94.10
15930;DHT22;8064;51.142;4.780;2023-02-01T15:52:51;10.10;94.20
15930;DHT22;8064;51.142;4.780;2023-02-01T15:55:21;10.00;94.20
15930;DHT22;8064;51.142;4.780;2023-02-01T15:57:50;10.00;94.30
15930;DHT22;8064;51.142;4.780;2023-02-01T16:00:42;10.00;94.30
15930;DHT22;8064;51.142;4.780;2023-02-01T16:03:36;10.00;94.40
15930;DHT22;8064;51.142;4.780;2023-02-01T16:06:06;10.00;94.40
15930;DHT22;8064;51.142;4.780;2023-02-01T16:08:32;10.00;94.50
15930;DHT22;8064;51.142;4.780;2023-02-01T16:11:14;10.00;94.50
15930;DHT22;8064;51.142;4.780;2023-02-01T16:13:40;10.00;94.60
15930;DHT22;8064;51.142;4.780;2023-02-01T16:16:08;10.00;94.60
15930;DHT22;8064;51.142;4.780;2023-02-01T16:18:39;10.00;94.70
15930;DHT22;8064;51.142;4.780;2023-02-01T16:21:06;10.00;94.80
15930;DHT22;8064;51.142;4.780;2023-02-01T16:23:34;10.00;94.80
15930;DHT22;8064;51.142;4.780;2023-02-01T16:26:00;10.00;94.80
15930;DHT22;8064;51.142;4.780;2023-02-01T16:28:26;10.00;94.90
15930;DHT22;8064;51.142;4.780;2023-02-01T16:30:52;10.00;94.90
15930;DHT22;8064;51.142;4.780;2023-02-01T16:33:19;10.00;95.00
15930;DHT22;8064;51.142;4.780;2023-02-01T16:35:48;10.00;95.10
15930;DHT22;8064;51.142;4.780;2023-02-01T16:38:16;10.00;95.10
15930;DHT22;8064;51.142;4.780;2023-02-01T16:40:45;10.00;95.20
15930;DHT22;8064;51.142;4.780;2023-02-01T16:43:14;10.00;95.30
15930;DHT22;8064;51.142;4.780;2023-02-01T16:45:40;10.00;95.30
15930;DHT22;8064;51.142;4.780;2023-02-01T16:48:07;10.00;95.30
15930;DHT22;8064;51.142;4.780;2023-02-01T16:50:33;10.00;95.40
15930;DHT22;8064;51.142;4.780;2023-02-01T16:53:01;9.90;95.90
15930;DHT22;8064;51.142;4.780;2023-02-01T16:55:27;10.00;95.50
15930;DHT22;8064;51.142;4.780;2023-02-01T16:57:53;9.90;96.00
15930;DHT22;8064;51.142;4.780;2023-02-01T17:00:19;9.90;96.10
15930;DHT22;8064;51.142;4.780;2023-02-01T17:02:45;9.90;96.10
15930;DHT22;8064;51.142;4.780;2023-02-01T17:05:11;9.90;96.20
15930;DHT22;8064;51.142;4.780;2023-02-01T17:07:38;9.90;96.30
15930;DHT22;8064;51.142;4.780;2023-02-01T17:10:10;9.90;96.30
15930;DHT22;8064;51.142;4.780;2023-02-01T17:12:42;9.80;96.30
15930;DHT22;8064;51.142;4.780;2023-02-01T17:15:09;9.80;96.40
15930;DHT22;8064;51.142;4.780;2023-02-01T17:17:37;9.80;96.50
15930;DHT22;8064;51.142;4.780;2023-02-01T17:20:04;9.80;96.50
15930;DHT22;8064;51.142;4.780;2023-02-01T17:22:31;9.80;96.60
15930;DHT22;8064;51.142;4.780;2023-02-01T17:24:57;9.80;96.70
15930;DHT22;8064;51.142;4.780;2023-02-01T17:27:23;9.80;96.70
15930;DHT22;8064;51.142;4.780;2023-02-01T17:29:49;9.80;96.80
15930;DHT22;8064;51.142;4.780;2023-02-01T17:32:19;9.80;96.90
15930;DHT22;8064;51.142;4.780;2023-02-01T17:34:45;9.80;96.90
15930;DHT22;8064;51.142;4.780;2023-02-01T17:37:28;9.70;96.90
15930;DHT22;8064;51.142;4.780;2023-02-01T17:39:54;9.70;97.00
15930;DHT22;8064;51.142;4.780;2023-02-01T17:42:21;9.70;97.10
15930;DHT22;8064;51.142;4.780;2023-02-01T17:44:57;9.70;97.10
15930;DHT22;8064;51.142;4.780;2023-02-01T17:47:23;9.70;97.10
15930;DHT22;8064;51.142;4.780;2023-02-01T17:49:49;9.70;97.10
15930;DHT22;8064;51.142;4.780;2023-02-01T17:52:21;9.70;97.10
15930;DHT22;8064;51.142;4.780;2023-02-01T17:54:47;9.70;97.20
15930;DHT22;8064;51.142;4.780;2023-02-01T17:57:15;9.70;97.20
15930;DHT22;8064;51.142;4.780;2023-02-01T17:59:42;9.70;97.30
15930;DHT22;8064;51.142;4.780;2023-02-01T18:02:21;9.70;97.30
15930;DHT22;8064;51.142;4.780;2023-02-01T18:04:48;9.70;97.40
15930;DHT22;8064;51.142;4.780;2023-02-01T18:07:14;9.60;97.30
15930;DHT22;8064;51.142;4.780;2023-02-01T18:09:40;9.60;97.40
15930;DHT22;8064;51.142;4.780;2023-02-01T18:12:08;9.60;97.50
15930;DHT22;8064;51.142;4.780;2023-02-01T18:14:38;9.60;97.60
15930;DHT22;8064;51.142;4.780;2023-02-01T18:17:03;9.60;97.60
15930;DHT22;8064;51.142;4.780;2023-02-01T18:19:29;9.60;97.70
15930;DHT22;8064;51.142;4.780;2023-02-01T18:21:55;9.60;97.70
15930;DHT22;8064;51.142;4.780;2023-02-01T18:24:22;9.60;97.70
15930;DHT22;8064;51.142;4.780;2023-02-01T18:26:49;9.60;97.80
15930;DHT22;8064;51.142;4.780;2023-02-01T18:29:16;9.60;97.90
15930;DHT22;8064;51.142;4.780;2023-02-01T18:31:46;9.60;98.00
15930;DHT22;8064;51.142;4.780;2023-02-01T18:34:13;9.60;98.10
15930;DHT22;8064;51.142;4.780;2023-02-01T18:36:45;9.60;98.10
15930;DHT22;8064;51.142;4.780;2023-02-01T18:39:11;9.60;98.20
15930;DHT22;8064;51.142;4.780;2023-02-01T18:41:37;9.60;98.30
15930;DHT22;8064;51.142;4.780;2023-02-01T18:44:02;9.60;98.30
15930;DHT22;8064;51.142;4.780;2023-02-01T18:46:29;9.60;98.40
15930;DHT22;8064;51.142;4.780;2023-02-01T18:48:54;9.60;98.50
15930;DHT22;8064;51.142;4.780;2023-02-01T18:51:20;9.60;98.50
15930;DHT22;8064;51.142;4.780;2023-02-01T18:53:47;9.60;98.60
15930;DHT22;8064;51.142;4.780;2023-02-01T18:56:14;9.60;98.70
15930;DHT22;8064;51.142;4.780;2023-02-01T18:58:41;9.60;98.70